Time;durP1;ratioP1;P1;durP2;ratioP2;P2;SDS_P1;SDS_P2;PMS_P1;PMS_P2;Temp;Humidity;BMP_temperature;BMP_pressure;BME280_temperature;BME280_humidity;BME280_pressure;Samples;Min_cycle;Max_cycle;Signal;HPM_P1;HPM_P2
2023/07/20 00:00:04;;;;;;;3.85;3.55;;;;;;;21.60;100.00;98718.53;5087542;28;20650;-77
2023/07/20 00:02:50;;;;;;;4.05;3.63;;;;;;;21.60;100.00;98707.63;5095668;28;20206;-77
2023/07/20 00:05:18;;;;;;;3.90;3.60;;;;;;;21.53;100.00;98702.63;5074405;28;20283;-76
2023/07/20 00:07:44;;;;;;;3.95;3.35;;;;;;;21.50;100.00;98707.91;5089479;28;20216;-77
2023/07/20 00:10:11;;;;;;;5.45;3.70;;;;;;;21.52;100.00;98705.66;5092193;28;20190;-77
2023/07/20 00:12:38;;;;;;;3.90;3.50;;;;;;;21.52;100.00;98708.38;5094594;28;20195;-77
2023/07/20 00:15:05;;;;;;;4.05;3.65;;;;;;;21.49;100.00;98707.09;5091213;28;20596;-77
2023/07/20 00:17:31;;;;;;;4.10;3.70;;;;;;;21.47;100.00;98711.22;5091573;28;20192;-77
2023/07/20 00:19:58;;;;;;;3.90;3.60;;;;;;;21.47;100.00;98719.41;5094138;28;20617;-78
2023/07/20 00:22:25;;;;;;;4.30;3.78;;;;;;;21.52;100.00;98716.53;5094655;28;20219;-77
2023/07/20 00:24:52;;;;;;;4.18;3.78;;;;;;;21.47;100.00;98709.31;5095021;28;20276;-78
2023/07/20 00:27:19;;;;;;;5.55;3.92;;;;;;;21.43;100.00;98721.97;5093278;28;20201;-77
2023/07/20 00:29:46;;;;;;;5.28;3.85;;;;;;;21.45;100.00;98711.56;5093970;28;20207;-75
2023/07/20 00:32:13;;;;;;;4.70;3.30;;;;;;;21.40;100.00;98722.59;5094729;28;20608;-77
2023/07/20 00:34:39;;;;;;;6.75;4.32;;;;;;;21.36;100.00;98732.50;5094813;28;20242;-77
2023/07/20 00:37:07;;;;;;;4.28;3.88;;;;;;;21.36;100.00;98737.97;5093521;28;20281;-77
2023/07/20 00:39:34;;;;;;;4.28;3.88;;;;;;;21.36;100.00;98731.69;5093099;28;20200;-77
2023/07/20 00:42:01;;;;;;;4.35;3.95;;;;;;;21.35;100.00;98736.34;5094565;28;20192;-76
2023/07/20 00:44:27;;;;;;;4.00;3.65;;;;;;;21.33;100.00;98737.75;5093263;28;20281;-77
2023/07/20 00:46:55;;;;;;;4.10;3.67;;;;;;;21.28;100.00;98746.06;5094766;28;20193;-76
2023/07/20 00:49:22;;;;;;;4.15;3.75;;;;;;;21.19;100.00;98756.09;5092451;28;20259;-76
2023/07/20 00:51:49;;;;;;;3.95;3.55;;;;;;;21.16;100.00;98754.00;5093816;28;20557;-76
2023/07/20 00:54:16;;;;;;;3.60;3.30;;;;;;;21.13;100.00;98751.88;5094374;28;20198;-77
2023/07/20 00:56:43;;;;;;;4.38;3.78;;;;;;;21.19;100.00;98748.72;5093706;28;20184;-77
2023/07/20 00:59:12;;;;;;;4.60;4.10;;;;;;;21.12;100.00;98740.16;5093623;28;20192;-78
2023/07/20 01:01:39;;;;;;;4.93;4.10;;;;;;;21.29;100.00;98744.94;5091028;28;20580;-77
2023/07/20 01:04:06;;;;;;;4.97;4.47;;;;;;;21.30;100.00;98735.66;5094408;28;20199;-77
2023/07/20 01:06:39;;;;;;;6.18;4.22;;;;;;;21.41;100.00;98731.56;5079189;28;20294;-77
2023/07/20 01:09:19;;;;;;;5.45;4.00;;;;;;;21.47;100.00;98733.03;5073591;28;20189;-77
2023/07/20 01:12:06;;;;;;;4.82;4.25;;;;;;;21.58;100.00;98737.09;5044586;28;20641;-78
2023/07/20 01:14:34;;;;;;;4.57;4.15;;;;;;;21.70;100.00;98733.78;5061406;28;20203;-77
2023/07/20 01:17:02;;;;;;;4.70;4.25;;;;;;;21.78;100.00;98719.41;5039106;28;20196;-77
2023/07/20 01:19:29;;;;;;;5.82;4.45;;;;;;;21.79;100.00;98705.44;5072567;28;20197;-77
2023/07/20 01:22:07;;;;;;;5.20;4.00;;;;;;;21.89;100.00;98704.34;5073528;28;20209;-77
2023/07/20 01:24:39;;;;;;;4.68;4.28;;;;;;;21.97;100.00;98711.00;5073369;28;20686;-77
2023/07/20 01:27:15;;;;;;;3.85;3.55;;;;;;;22.16;100.00;98701.41;5073528;28;20190;-76
2023/07/20 01:30:10;;;;;;;4.53;4.05;;;;;;;22.19;100.00;98689.06;5040170;28;20206;-76
2023/07/20 01:32:41;;;;;;;4.38;3.97;;;;;;;22.26;100.00;98692.94;5059489;28;20205;-75
2023/07/20 01:35:09;;;;;;;4.40;4.00;;;;;;;22.19;100.00;98700.00;5055455;28;20205;-76
2023/07/20 01:37:37;;;;;;;4.47;4.07;;;;;;;22.28;100.00;98707.06;5059908;28;20205;-75
2023/07/20 01:40:04;;;;;;;4.55;3.97;;;;;;;22.32;100.00;98716.22;5055510;28;20205;-77
2023/07/20 01:42:31;;;;;;;6.07;3.85;;;;;;;22.34;100.00;98727.63;5073419;28;20194;-76
2023/07/20 01:44:57;;;;;;;4.90;4.10;;;;;;;22.40;100.00;98723.63;5071339;28;20210;-75
2023/07/20 01:47:24;;;;;;;4.38;3.67;;;;;;;22.48;100.00;98719.31;5068768;28;20193;-77
2023/07/20 01:49:51;;;;;;;4.40;4.03;;;;;;;22.48;100.00;98727.50;5045602;28;20620;-76
2023/07/20 01:52:17;;;;;;;4.30;3.58;;;;;;;22.63;100.00;98718.03;5069159;28;20201;-76
2023/07/20 01:54:59;;;;;;;7.72;4.13;;;;;;;22.55;100.00;98718.81;5069040;28;20240;-76
2023/07/20 01:57:26;;;;;;;4.55;4.15;;;;;;;22.55;100.00;98727.81;5053382;28;20198;-76
2023/07/20 01:59:53;;;;;;;4.28;3.88;;;;;;;22.63;100.00;98723.50;5066867;28;20216;-77
2023/07/20 02:02:20;;;;;;;4.10;3.67;;;;;;;22.69;100.00;98714.00;5053519;28;20204;-77
2023/07/20 02:04:47;;;;;;;4.40;4.00;;;;;;;22.75;100.00;98723.69;5065345;28;20213;-76
2023/07/20 02:07:14;;;;;;;5.15;3.90;;;;;;;22.58;100.00;98723.66;5112397;28;20241;-77
2023/07/20 02:09:40;;;;;;;4.78;4.28;;;;;;;22.61;100.00;98720.28;5077116;28;20199;-77
2023/07/20 02:12:08;;;;;;;4.35;3.92;;;;;;;22.54;100.00;98728.94;5090746;28;20184;-77
2023/07/20 02:14:34;;;;;;;5.50;4.40;;;;;;;22.46;100.00;98718.81;5098060;28;20192;-77
2023/07/20 02:17:01;;;;;;;4.40;4.00;;;;;;;22.46;100.00;98735.19;5110125;28;20628;-76
2023/07/20 02:19:30;;;;;;;4.47;3.85;;;;;;;22.47;100.00;98730.53;5101566;28;20252;-77
2023/07/20 02:21:58;;;;;;;4.53;3.92;;;;;;;22.38;100.00;98736.78;5110744;28;20557;-76
2023/07/20 02:24:25;;;;;;;4.30;3.88;;;;;;;22.41;100.00;98735.34;5100299;28;20184;-77
2023/07/20 02:26:52;;;;;;;4.28;3.88;;;;;;;22.49;100.00;98747.41;5111751;28;20212;-77
2023/07/20 02:29:19;;;;;;;5.35;3.88;;;;;;;22.40;100.00;98753.63;5101332;28;20223;-76
2023/07/20 02:31:45;;;;;;;4.38;3.97;;;;;;;22.34;100.00;98756.84;5087996;28;20681;-76
2023/07/20 02:34:13;;;;;;;4.35;3.67;;;;;;;22.31;100.00;98762.91;5079585;28;20276;-76
2023/07/20 02:36:42;;;;;;;4.20;3.80;;;;;;;22.39;100.00;98771.16;5105232;28;20196;-76
2023/07/20 02:39:09;;;;;;;4.28;3.88;;;;;;;22.34;100.00;98771.28;5085695;28;20210;-77
2023/07/20 02:41:36;;;;;;;4.25;3.72;;;;;;;22.27;100.00;98776.41;5075339;28;20292;-76
2023/07/20 02:44:03;;;;;;;4.03;3.63;;;;;;;22.21;100.00;98779.59;5095900;28;20206;-76
2023/07/20 02:46:30;;;;;;;4.53;3.72;;;;;;;22.12;100.00;98773.28;5097568;28;20215;-77
2023/07/20 02:48:57;;;;;;;4.75;3.40;;;;;;;22.06;100.00;98774.56;5104265;28;20182;-76
2023/07/20 02:51:24;;;;;;;3.92;3.53;;;;;;;21.99;100.00;98783.19;5107572;28;20186;-77
2023/07/20 02:53:51;;;;;;;4.60;3.35;;;;;;;21.99;100.00;98780.47;5108704;28;20192;-77
2023/07/20 02:56:18;;;;;;;4.75;3.35;;;;;;;21.94;100.00;98784.13;5090211;28;20240;-77
2023/07/20 02:58:45;;;;;;;4.90;3.80;;;;;;;22.00;100.00;98790.25;5093199;28;20230;-78
2023/07/20 03:01:15;;;;;;;5.05;3.40;;;;;;;21.94;100.00;98796.97;5095881;28;20192;-77
2023/07/20 03:03:46;;;;;;;4.82;3.42;;;;;;;21.90;100.00;98798.69;5110455;28;20193;-78
2023/07/20 03:06:14;;;;;;;4.13;3.40;;;;;;;21.84;100.00;98803.47;5085988;28;20631;-77
2023/07/20 03:08:47;;;;;;;3.50;3.20;;;;;;;21.89;100.00;98800.59;5089835;28;20191;-77
2023/07/20 03:11:15;;;;;;;3.95;3.58;;;;;;;21.82;100.00;98804.91;5090115;28;20685;-77
2023/07/20 03:13:42;;;;;;;3.75;3.20;;;;;;;21.77;100.00;98811.28;5093549;28;20203;-78
2023/07/20 03:16:11;;;;;;;3.83;3.40;;;;;;;21.71;100.00;98815.25;5096777;28;20207;-78
2023/07/20 03:18:38;;;;;;;4.18;3.55;;;;;;;21.69;100.00;98822.16;5096864;28;20693;-78
2023/07/20 03:21:08;;;;;;;4.40;3.42;;;;;;;21.71;100.00;98828.09;5096001;28;20262;-77
2023/07/20 03:23:34;;;;;;;3.85;3.30;;;;;;;21.75;100.00;98835.31;5097361;28;20215;-78
2023/07/20 03:26:01;;;;;;;3.47;3.17;;;;;;;21.72;100.00;98844.13;5098066;28;20210;-78
2023/07/20 03:28:28;;;;;;;4.13;3.42;;;;;;;21.67;100.00;98838.00;5098880;28;20200;-78
2023/07/20 03:30:57;;;;;;;5.68;3.60;;;;;;;21.65;100.00;98843.75;5092930;28;20190;-78
2023/07/20 03:33:27;;;;;;;3.50;3.20;;;;;;;21.66;100.00;98834.47;5096570;28;20711;-77
2023/07/20 03:35:54;;;;;;;3.72;3.28;;;;;;;21.71;100.00;98845.25;5097846;28;20664;-77
2023/07/20 03:38:26;;;;;;;3.40;3.10;;;;;;;21.75;100.00;98845.44;5095735;28;20194;-77
2023/07/20 03:40:54;;;;;;;4.60;2.95;;;;;;;21.76;100.00;98844.31;5079606;28;20289;-78
2023/07/20 03:43:22;;;;;;;3.15;2.85;;;;;;;21.87;100.00;98851.94;5096396;28;20667;-77
2023/07/20 03:45:49;;;;;;;4.75;3.25;;;;;;;21.93;100.00;98847.16;5097827;28;20217;-78
2023/07/20 03:48:18;;;;;;;3.97;3.30;;;;;;;21.98;100.00;98848.97;5093593;28;20893;-78
2023/07/20 03:50:48;;;;;;;3.83;3.03;;;;;;;22.04;100.00;98856.69;5096243;28;20189;-77
2023/07/20 03:53:15;;;;;;;3.70;3.35;;;;;;;22.18;100.00;98853.88;5097508;28;20293;-78
2023/07/20 03:55:46;;;;;;;5.13;3.40;;;;;;;22.17;100.00;98850.34;5096287;28;20586;-77
2023/07/20 03:58:14;;;;;;;4.93;3.70;;;;;;;22.28;100.00;98842.69;5097635;28;20190;-77
2023/07/20 04:00:44;;;;;;;4.05;3.38;;;;;;;22.43;100.00;98849.66;5097465;28;20189;-77
2023/07/20 04:03:11;;;;;;;5.85;3.47;;;;;;;22.47;100.00;98853.34;5096319;28;20197;-78
2023/07/20 04:05:38;;;;;;;3.53;3.22;;;;;;;22.50;100.00;98847.25;5102020;28;20239;-78
2023/07/20 04:08:05;;;;;;;3.80;3.40;;;;;;;22.71;100.00;98848.31;5101776;28;20197;-79
2023/07/20 04:10:32;;;;;;;6.00;3.40;;;;;;;22.71;100.00;98845.59;5091943;28;20196;-79
2023/07/20 04:12:58;;;;;;;4.40;3.55;;;;;;;22.77;100.00;98847.84;5094142;28;20220;-77
2023/07/20 04:15:25;;;;;;;3.70;2.97;;;;;;;22.73;100.00;98848.78;5088281;28;20196;-77
2023/07/20 04:17:52;;;;;;;4.00;3.42;;;;;;;22.78;100.00;98852.19;5098365;28;20285;-76
2023/07/20 04:20:18;;;;;;;4.35;3.28;;;;;;;22.76;100.00;98853.63;5085615;28;20664;-77
2023/07/20 04:22:45;;;;;;;5.55;3.50;;;;;;;22.92;100.00;98859.44;5086566;28;20214;-76
2023/07/20 04:25:14;;;;;;;5.53;3.28;;;;;;;22.98;100.00;98855.44;5076562;28;20664;-76
2023/07/20 04:27:41;;;;;;;3.95;3.42;;;;;;;23.06;100.00;98860.09;5102555;28;20245;-76
2023/07/20 04:30:08;;;;;;;4.18;3.40;;;;;;;23.09;100.00;98852.09;5074685;28;20205;-76
2023/07/20 04:32:35;;;;;;;3.92;3.33;;;;;;;23.10;100.00;98848.22;5087980;28;20201;-76
2023/07/20 04:35:06;;;;;;;3.80;3.38;;;;;;;23.12;100.00;98856.91;5082415;28;20226;-78
2023/07/20 04:37:33;;;;;;;4.65;3.58;;;;;;;23.16;100.00;98863.34;5095843;28;20686;-77
2023/07/20 04:40:03;;;;;;;5.25;3.75;;;;;;;23.22;100.00;98861.25;5077273;28;20204;-76
2023/07/20 04:42:29;;;;;;;3.70;3.13;;;;;;;23.32;100.00;98862.84;5066878;28;20231;-76
2023/07/20 04:44:56;;;;;;;4.28;3.30;;;;;;;23.43;100.00;98869.59;5078135;28;20225;-76
2023/07/20 04:47:23;;;;;;;4.00;3.58;;;;;;;23.51;100.00;98868.84;5076246;28;20243;-77
2023/07/20 04:49:50;;;;;;;4.55;3.38;;;;;;;23.68;100.00;98875.09;5092921;28;20207;-76
2023/07/20 04:52:17;;;;;;;6.47;3.30;;;;;;;23.82;100.00;98872.16;5082259;28;20199;-76
2023/07/20 04:54:44;;;;;;;6.25;3.30;;;;;;;23.85;100.00;98882.44;5105542;28;20737;-76
2023/07/20 04:57:13;;;;;;;4.53;3.33;;;;;;;23.76;100.00;98881.66;5087950;28;20207;-75
2023/07/20 04:59:44;;;;;;;6.10;3.22;;;;;;;23.83;100.00;98878.44;5092781;28;20581;-77
2023/07/20 05:02:11;;;;;;;3.78;3.38;;;;;;;23.82;100.00;98882.31;5096135;28;20204;-76
2023/07/20 05:04:37;;;;;;;4.10;3.25;;;;;;;23.81;100.00;98883.44;5089961;28;20204;-76
2023/07/20 05:07:06;;;;;;;3.95;3.53;;;;;;;23.83;100.00;98892.13;5071696;28;20244;-76
2023/07/20 05:09:33;;;;;;;3.30;3.00;;;;;;;23.86;100.00;98886.81;5067129;28;20200;-77
2023/07/20 05:11:59;;;;;;;5.88;3.55;;;;;;;23.92;100.00;98884.72;5053414;28;20202;-76
2023/07/20 05:14:26;;;;;;;5.30;3.45;;;;;;;23.88;100.00;98886.50;5064059;28;20197;-77
2023/07/20 05:16:54;;;;;;;4.00;3.35;;;;;;;23.94;100.00;98876.97;5048818;28;20213;-77
2023/07/20 05:19:20;;;;;;;4.93;3.13;;;;;;;23.90;100.00;98892.41;5061104;28;20193;-76
2023/07/20 05:21:47;;;;;;;4.07;3.45;;;;;;;23.92;100.00;98890.97;5073352;28;20188;-75
2023/07/20 05:24:14;;;;;;;6.68;3.33;;;;;;;23.97;100.00;98907.22;5050882;28;20200;-76
2023/07/20 05:26:41;;;;;;;5.10;3.33;;;;;;;23.91;100.00;98905.78;5073298;28;20216;-76
2023/07/20 05:29:07;;;;;;;8.80;3.40;;;;;;;23.89;100.00;98907.25;5073141;28;20197;-75
2023/07/20 05:31:34;;;;;;;3.35;3.05;;;;;;;23.79;100.00;98907.59;5071715;28;20600;-76
2023/07/20 05:34:01;;;;;;;3.70;3.40;;;;;;;23.87;100.00;98907.56;5073108;28;20246;-75
2023/07/20 05:36:28;;;;;;;4.70;3.10;;;;;;;23.98;100.00;98906.06;5071808;28;20192;-77
2023/07/20 05:38:54;;;;;;;3.50;3.20;;;;;;;23.94;100.00;98902.38;5069133;28;20193;-76
2023/07/20 05:41:22;;;;;;;3.28;2.97;;;;;;;24.03;100.00;98905.91;5073067;28;20188;-76
2023/07/20 05:43:49;;;;;;;4.10;3.13;;;;;;;24.15;100.00;98902.50;5072593;28;20196;-76
2023/07/20 05:46:16;;;;;;;4.15;2.70;;;;;;;24.19;100.00;98898.03;5072889;28;20598;-75
2023/07/20 05:48:42;;;;;;;3.38;3.08;;;;;;;24.13;100.00;98902.84;5071783;28;20199;-76
2023/07/20 05:51:09;;;;;;;4.38;3.03;;;;;;;24.16;100.00;98917.84;5072136;28;20606;-76
2023/07/20 05:53:36;;;;;;;3.25;2.95;;;;;;;24.19;100.00;98917.19;5072537;28;20195;-75
2023/07/20 05:56:03;;;;;;;3.95;3.10;;;;;;;24.24;100.00;98922.47;5072551;28;20201;-76
2023/07/20 05:58:30;;;;;;;4.35;3.15;;;;;;;24.31;100.00;98935.69;5072790;28;20201;-75
2023/07/20 06:00:56;;;;;;;3.30;3.00;;;;;;;24.38;100.00;98936.78;5072315;28;20623;-76
2023/07/20 06:03:23;;;;;;;3.35;2.72;;;;;;;24.35;100.00;98933.91;5072491;28;20193;-76
2023/07/20 06:05:50;;;;;;;2.97;2.67;;;;;;;24.35;100.00;98942.09;5072060;28;20281;-76
2023/07/20 06:08:16;;;;;;;5.10;3.20;;;;;;;24.42;100.00;98932.25;5072342;28;20215;-76
2023/07/20 06:10:43;;;;;;;3.47;2.75;;;;;;;24.46;100.00;98932.38;5072665;28;20207;-75
2023/07/20 06:13:11;;;;;;;4.30;3.10;;;;;;;24.59;100.00;98928.63;5072326;28;20677;-75
2023/07/20 06:15:39;;;;;;;3.70;2.83;;;;;;;24.73;100.00;98929.22;5072752;28;20189;-76
2023/07/20 06:18:05;;;;;;;3.40;3.10;;;;;;;24.83;100.00;98930.78;5072531;28;20285;-77
2023/07/20 06:20:32;;;;;;;3.60;2.75;;;;;;;24.92;100.00;98932.38;5072373;28;20274;-75
2023/07/20 06:22:59;;;;;;;4.68;3.08;;;;;;;24.97;100.00;98932.19;5072151;28;20217;-78
2023/07/20 06:25:26;;;;;;;4.50;2.90;;;;;;;25.05;100.00;98936.03;5054582;28;20192;-76
2023/07/20 06:27:55;;;;;;;6.15;3.08;;;;;;;25.31;100.00;98933.91;5071306;28;20307;-75
2023/07/20 06:30:22;;;;;;;3.63;2.75;;;;;;;25.65;99.67;98934.84;5068549;28;20603;-75
2023/07/20 06:32:49;;;;;;;3.78;2.85;;;;;;;26.06;98.17;98932.03;5071977;28;20193;-76
2023/07/20 06:35:17;;;;;;;4.00;3.25;;;;;;;26.09;97.42;98931.34;5063184;28;20570;-75
2023/07/20 06:37:44;;;;;;;4.78;2.97;;;;;;;26.31;96.48;98934.88;5069022;28;20184;-75
2023/07/20 06:40:11;;;;;;;3.78;2.85;;;;;;;26.15;95.60;98932.75;5071627;28;20192;-75
2023/07/20 06:42:40;;;;;;;4.82;3.28;;;;;;;26.06;96.21;98925.72;5064074;28;20249;-76
2023/07/20 06:45:10;;;;;;;4.18;3.22;;;;;;;25.88;95.72;98932.53;5067105;28;20188;-76
2023/07/20 06:47:40;;;;;;;3.58;2.97;;;;;;;25.74;95.61;98932.81;5059397;28;20266;-76
2023/07/20 06:50:07;;;;;;;3.65;3.03;;;;;;;25.68;98.03;98940.44;5072054;28;20222;-75
2023/07/20 06:52:34;;;;;;;4.03;3.05;;;;;;;25.71;97.04;98941.72;5067101;28;20729;-76
2023/07/20 06:55:01;;;;;;;3.47;2.97;;;;;;;25.76;96.09;98939.56;5053433;28;20235;-75
2023/07/20 06:57:31;;;;;;;4.50;2.90;;;;;;;25.96;96.18;98939.88;5067378;28;20641;-75
2023/07/20 06:59:58;;;;;;;5.85;3.15;;;;;;;25.94;96.13;98937.47;5071609;28;20239;-75
2023/07/20 07:02:25;;;;;;;5.57;3.08;;;;;;;26.11;96.61;98934.56;5071415;28;20246;-75
2023/07/20 07:04:51;;;;;;;3.72;3.00;;;;;;;26.06;96.33;98937.50;5071759;28;20659;-78
2023/07/20 07:07:26;;;;;;;4.57;3.00;;;;;;;26.10;96.50;98929.41;5112193;28;20310;-79
2023/07/20 07:09:53;;;;;;;3.72;3.00;;;;;;;26.30;94.94;98934.06;5112299;28;20199;-77
2023/07/20 07:12:20;;;;;;;4.30;3.13;;;;;;;26.33;94.41;98927.88;5106465;28;20664;-78
2023/07/20 07:14:47;;;;;;;4.43;2.85;;;;;;;26.40;94.63;98930.09;5112547;28;20195;-78
2023/07/20 07:17:14;;;;;;;3.92;2.80;;;;;;;26.61;93.26;98936.28;5102079;28;20287;-76
2023/07/20 07:19:45;;;;;;;3.33;2.90;;;;;;;26.66;93.82;98933.31;5099619;28;20187;-77
2023/07/20 07:22:14;;;;;;;3.67;3.05;;;;;;;26.62;91.52;98930.47;5104538;28;20269;-77
2023/07/20 07:24:41;;;;;;;6.07;3.30;;;;;;;26.65;91.20;98924.28;5085417;28;20261;-76
2023/07/20 07:27:09;;;;;;;4.35;2.88;;;;;;;26.74;89.54;98929.66;5072975;28;20628;-76
2023/07/20 07:29:35;;;;;;;5.93;2.92;;;;;;;27.03;89.74;98936.91;5089747;28;20686;-76
2023/07/20 07:32:02;;;;;;;3.28;2.67;;;;;;;27.20;87.16;98928.44;5084749;28;20224;-76
2023/07/20 07:34:29;;;;;;;3.30;2.78;;;;;;;26.81;85.12;98926.34;5080862;28;20547;-75
2023/07/20 07:36:56;;;;;;;3.53;2.72;;;;;;;26.81;83.99;98929.91;5092670;28;20203;-76
2023/07/20 07:39:24;;;;;;;4.13;2.60;;;;;;;26.84;83.42;98931.94;5097462;28;20192;-75
2023/07/20 07:41:53;;;;;;;3.67;2.72;;;;;;;27.09;83.13;98928.09;5100907;28;20210;-77
2023/07/20 07:44:21;;;;;;;2.90;2.67;;;;;;;27.18;82.55;98938.94;5098283;28;20716;-76
2023/07/20 07:46:48;;;;;;;4.70;2.33;;;;;;;26.96;80.30;98926.50;5098912;28;20290;-77
2023/07/20 07:49:16;;;;;;;3.28;1.98;;;;;;;27.04;81.05;98922.00;5092971;28;20204;-77
2023/07/20 07:51:43;;;;;;;3.33;2.60;;;;;;;27.22;80.56;98936.31;5083704;28;20203;-77
2023/07/20 07:54:09;;;;;;;3.75;2.60;;;;;;;27.20;79.85;98914.66;5110935;28;20199;-76
2023/07/20 07:56:36;;;;;;;6.03;2.60;;;;;;;27.52;79.81;98923.91;5100037;28;20216;-77
2023/07/20 07:59:03;;;;;;;2.92;2.63;;;;;;;27.58;79.99;98923.31;5092927;28;20651;-76
2023/07/20 08:01:29;;;;;;;3.40;2.67;;;;;;;27.72;78.58;98933.91;5104662;28;20556;-76
2023/07/20 08:03:57;;;;;;;5.70;2.65;;;;;;;27.84;78.76;98928.38;5108351;28;20216;-78
2023/07/20 08:06:24;;;;;;;4.78;2.30;;;;;;;27.76;77.95;98923.03;5111685;28;20235;-78
2023/07/20 08:08:51;;;;;;;4.85;2.88;;;;;;;27.82;77.86;98930.66;5104456;28;20227;-78
2023/07/20 08:11:18;;;;;;;4.78;2.38;;;;;;;27.69;76.12;98939.31;5115422;28;20650;-75
2023/07/20 08:13:44;;;;;;;5.28;2.60;;;;;;;27.40;77.10;98919.19;5097277;28;20202;-75
2023/07/20 08:16:11;;;;;;;2.47;2.28;;;;;;;27.48;75.84;98940.28;5111148;28;20704;-75
2023/07/20 08:18:38;;;;;;;3.80;2.58;;;;;;;27.53;75.44;98936.50;5113565;28;20271;-75
2023/07/20 08:21:05;;;;;;;3.75;2.47;;;;;;;27.40;76.96;98927.44;5098717;28;20671;-76
2023/07/20 08:23:32;;;;;;;3.45;2.50;;;;;;;27.54;76.93;98933.41;5092679;28;20272;-75
2023/07/20 08:25:58;;;;;;;3.58;2.50;;;;;;;27.86;75.88;98948.09;5103350;28;20196;-78
2023/07/20 08:28:26;;;;;;;3.28;2.30;;;;;;;28.01;73.97;98921.75;5092809;28;20212;-76
2023/07/20 08:30:53;;;;;;;4.85;2.50;;;;;;;27.81;72.21;98931.03;5097627;28;20210;-77
2023/07/20 08:33:20;;;;;;;7.22;2.40;;;;;;;27.97;71.75;98945.63;5086381;28;20663;-76
2023/07/20 08:35:47;;;;;;;3.45;2.50;;;;;;;28.08;70.82;98934.94;5105058;28;20279;-79
2023/07/20 08:38:14;;;;;;;2.97;2.25;;;;;;;28.10;70.80;98932.59;5091621;28;20204;-76
2023/07/20 08:40:53;;;;;;;4.63;2.45;;;;;;;28.28;70.39;98931.97;5100831;28;20188;-76
2023/07/20 08:43:21;;;;;;;3.45;2.10;;;;;;;28.42;71.22;98932.34;5093533;28;20197;-77
2023/07/20 08:45:48;;;;;;;3.22;2.20;;;;;;;28.14;69.04;98936.28;5081448;28;20191;-76
2023/07/20 08:48:15;;;;;;;3.30;2.50;;;;;;;27.98;69.51;98933.47;5100961;28;20220;-76
2023/07/20 08:50:43;;;;;;;2.22;2.03;;;;;;;27.80;70.99;98941.25;5088455;28;20550;-75
2023/07/20 08:53:10;;;;;;;3.47;2.33;;;;;;;27.95;69.91;98931.41;5114672;28;20694;-77
2023/07/20 08:55:37;;;;;;;2.85;2.35;;;;;;;27.88;69.01;98937.53;5109233;28;20214;-76
2023/07/20 08:58:06;;;;;;;4.00;1.92;;;;;;;27.77;67.95;98928.16;5104719;28;20646;-76
2023/07/20 09:00:33;;;;;;;3.15;2.38;;;;;;;27.90;68.15;98943.47;5091203;28;20191;-76
2023/07/20 09:03:02;;;;;;;3.65;2.08;;;;;;;28.09;66.93;98929.06;5096368;28;20538;-75
2023/07/20 09:05:29;;;;;;;3.78;2.30;;;;;;;28.35;67.21;98929.41;5108558;28;20238;-75
2023/07/20 09:07:59;;;;;;;4.15;2.20;;;;;;;28.57;67.22;98919.72;5114467;28;20211;-75
2023/07/20 09:10:26;;;;;;;3.97;2.40;;;;;;;28.85;65.99;98930.69;5096185;28;20200;-76
2023/07/20 09:12:53;;;;;;;5.90;2.90;;;;;;;28.91;65.92;98931.22;5112755;28;20241;-76
2023/07/20 09:15:20;;;;;;;4.82;2.50;;;;;;;28.82;66.06;98925.88;5107897;28;20192;-76
2023/07/20 09:17:48;;;;;;;2.38;2.17;;;;;;;29.12;65.49;98935.25;5108219;28;20203;-78
2023/07/20 09:20:17;;;;;;;5.95;2.35;;;;;;;29.25;61.92;98933.22;5103168;28;20202;-76
2023/07/20 09:22:49;;;;;;;2.35;2.15;;;;;;;29.50;63.42;98931.00;5105346;28;20197;-78
2023/07/20 09:25:18;;;;;;;5.03;2.58;;;;;;;29.37;64.27;98935.88;5103156;28;20192;-78
2023/07/20 09:27:48;;;;;;;3.25;2.10;;;;;;;29.34;63.98;98938.56;5081662;28;20216;-78
2023/07/20 09:30:16;;;;;;;2.88;2.03;;;;;;;29.27;63.94;98930.88;5091333;28;20306;-78
2023/07/20 09:32:48;;;;;;;4.95;1.88;;;;;;;28.86;60.61;98941.38;5075503;28;20192;-78
2023/07/20 09:35:20;;;;;;;2.50;1.80;;;;;;;28.72;59.77;98943.78;5100510;28;20197;-78
2023/07/20 09:37:52;;;;;;;1.83;1.60;;;;;;;28.46;59.96;98941.50;5105509;28;20181;-78
2023/07/20 09:40:39;;;;;;;4.53;1.90;;;;;;;28.56;60.07;98942.91;5108139;28;20252;-78
2023/07/20 09:43:09;;;;;;;2.63;1.60;;;;;;;28.98;60.66;98937.69;5093654;28;20194;-78
2023/07/20 09:45:43;;;;;;;2.45;2.03;;;;;;;29.10;60.19;98940.34;5094098;28;20188;-78
2023/07/20 09:48:13;;;;;;;3.15;1.75;;;;;;;29.10;60.06;98943.13;5093518;28;20222;-78
2023/07/20 09:50:49;;;;;;;3.05;1.83;;;;;;;29.18;59.90;98935.78;5097140;28;20219;-78
2023/07/20 09:53:17;;;;;;;3.50;1.52;;;;;;;29.19;57.68;98940.16;5105965;28;20236;-79
2023/07/20 09:55:46;;;;;;;4.55;1.75;;;;;;;29.64;57.17;98945.91;5093439;28;20189;-79
2023/07/20 09:58:14;;;;;;;3.00;1.90;;;;;;;30.02;56.97;98949.88;5075315;28;20569;-78
2023/07/20 10:00:46;;;;;;;1.80;1.70;;;;;;;29.95;56.15;98944.22;5077230;28;20181;-79
2023/07/20 10:03:19;;;;;;;3.28;1.60;;;;;;;29.80;55.48;98940.34;5093037;28;20278;-79
2023/07/20 10:05:54;;;;;;;2.72;1.90;;;;;;;30.03;55.73;98951.47;5085448;28;20232;-78
2023/07/20 10:08:24;;;;;;;2.25;1.75;;;;;;;29.93;55.28;98957.59;5072754;28;20474;-78
2023/07/20 10:10:54;;;;;;;2.83;1.70;;;;;;;29.88;54.46;98947.63;5073003;28;20568;-78
2023/07/20 10:13:29;;;;;;;3.58;1.63;;;;;;;30.13;54.42;98943.41;5071266;28;20196;-77
2023/07/20 10:16:03;;;;;;;3.20;1.83;;;;;;;30.51;54.66;98945.31;5072662;28;20589;-78
2023/07/20 10:18:52;;;;;;;3.05;1.60;;;;;;;30.85;53.51;98945.47;5060488;28;20223;-77
2023/07/20 10:21:20;;;;;;;1.60;1.50;;;;;;;30.72;52.44;98944.88;5067171;28;20775;-78
2023/07/20 10:23:50;;;;;;;3.38;1.65;;;;;;;30.18;50.95;98945.06;5050146;28;20216;-78
2023/07/20 10:26:16;;;;;;;4.03;2.13;;;;;;;29.62;51.26;98934.47;5056968;28;20595;-78
2023/07/20 10:28:43;;;;;;;2.83;1.60;;;;;;;29.59;51.30;98942.63;5072233;28;20220;-79
2023/07/20 10:31:12;;;;;;;2.33;1.70;;;;;;;29.49;51.62;98932.19;5052035;28;20200;-78
2023/07/20 10:33:39;;;;;;;2.67;1.60;;;;;;;29.11;52.70;98946.69;5062309;28;20197;-78
2023/07/20 10:36:06;;;;;;;1.80;1.70;;;;;;;29.09;54.35;98938.75;5067963;28;20204;-78
2023/07/20 10:38:52;;;;;;;1.95;1.73;;;;;;;29.45;54.75;98945.88;5072050;28;20192;-78
2023/07/20 10:41:20;;;;;;;3.05;1.70;;;;;;;29.33;54.75;98940.50;5052941;28;20215;-78
2023/07/20 10:43:48;;;;;;;3.08;1.83;;;;;;;29.70;54.00;98929.88;5072335;28;20656;-79
2023/07/20 10:46:33;;;;;;;5.80;2.10;;;;;;;29.86;52.25;98943.63;5071928;28;20572;-79
2023/07/20 10:49:05;;;;;;;2.00;1.80;;;;;;;30.15;52.10;98940.25;5059724;28;20267;-78
2023/07/20 10:52:01;;;;;;;3.58;1.80;;;;;;;30.30;52.03;98947.66;5071901;28;20201;-78
2023/07/20 10:54:28;;;;;;;2.90;2.05;;;;;;;30.49;51.91;98941.31;5071878;28;20280;-78
2023/07/20 10:57:24;;;;;;;2.83;1.90;;;;;;;30.42;52.67;98944.69;5072028;28;20185;-78
2023/07/20 10:59:51;;;;;;;2.88;1.67;;;;;;;30.35;52.88;98938.25;5047608;28;20234;-78
2023/07/20 11:02:20;;;;;;;3.55;1.83;;;;;;;30.06;53.07;98946.00;5071947;28;20201;-79
2023/07/20 11:04:48;;;;;;;4.32;1.83;;;;;;;30.50;53.34;98935.44;5054447;28;20193;-78
2023/07/20 11:07:17;;;;;;;2.05;1.83;;;;;;;30.79;53.50;98939.47;5070713;28;20224;-79
2023/07/20 11:09:45;;;;;;;2.13;2.00;;;;;;;30.59;52.70;98935.19;5071458;28;20197;-79
2023/07/20 11:12:17;;;;;;;2.40;1.90;;;;;;;30.21;53.52;98935.22;5071691;28;20189;-78
2023/07/20 11:14:56;;;;;;;2.92;1.80;;;;;;;30.77;53.12;98927.97;5070247;28;20212;-77
2023/07/20 11:17:30;;;;;;;2.72;1.80;;;;;;;30.63;53.16;98922.22;5068982;28;20193;-79
2023/07/20 11:20:01;;;;;;;2.55;1.77;;;;;;;31.02;53.25;98920.91;5071448;28;20196;-77
2023/07/20 11:22:31;;;;;;;1.90;1.80;;;;;;;31.34;52.52;98924.13;5069496;28;20205;-79
2023/07/20 11:24:58;;;;;;;2.45;1.90;;;;;;;31.68;52.14;98924.22;5071497;28;20189;-79
2023/07/20 11:27:25;;;;;;;3.40;1.70;;;;;;;31.78;50.66;98915.22;5071338;28;20583;-78
2023/07/20 11:29:52;;;;;;;3.33;1.98;;;;;;;32.10;51.85;98919.19;5071147;28;20216;-79
2023/07/20 11:32:22;;;;;;;2.88;1.90;;;;;;;32.14;49.74;98913.69;5070060;28;20619;-79
2023/07/20 11:34:49;;;;;;;2.28;1.90;;;;;;;31.75;50.53;98908.47;5073265;28;20292;-78